createdAt,value
2022-08-12T00:04:26.868Z,1.90
2022-08-12T00:09:47.786Z,3.20
2022-08-12T00:15:10.585Z,2.30
2022-08-12T00:20:32.386Z,2.10
2022-08-12T00:26:20.929Z,2.40
2022-08-12T00:31:43.998Z,3.40
2022-08-12T00:37:13.192Z,1.60
2022-08-12T00:42:19.505Z,2.00
2022-08-12T00:47:25.707Z,1.90
2022-08-12T00:52:28.268Z,1.80
2022-08-12T00:57:36.389Z,2.80
2022-08-12T01:02:45.959Z,3.20
2022-08-12T01:08:08.201Z,4.40
2022-08-12T01:13:19.253Z,2.50
2022-08-12T01:18:26.029Z,2.70
2022-08-12T01:24:29.704Z,2.20
2022-08-12T01:29:32.529Z,2.00
2022-08-12T01:34:39.232Z,2.00
2022-08-12T01:40:35.438Z,2.10
2022-08-12T01:45:25.232Z,2.50
2022-08-12T01:51:01.412Z,2.10
2022-08-12T01:56:09.810Z,2.80
2022-08-12T02:01:13.500Z,1.80
2022-08-12T02:06:44.991Z,1.50
2022-08-12T02:11:53.816Z,1.60
2022-08-12T02:17:13.625Z,2.10
2022-08-12T02:22:38.081Z,2.40
2022-08-12T02:27:45.432Z,1.80
2022-08-12T02:32:56.751Z,2.50
2022-08-12T02:38:08.497Z,1.70
2022-08-12T02:43:32.630Z,2.30
2022-08-12T02:48:37.888Z,2.20
2022-08-12T02:53:41.002Z,2.00
2022-08-12T02:58:45.812Z,3.50
2022-08-12T03:03:52.752Z,2.40
2022-08-12T03:08:58.727Z,1.60
2022-08-12T03:14:03.476Z,2.10
2022-08-12T03:19:08.735Z,2.50
2022-08-12T03:24:17.065Z,2.00
2022-08-12T03:29:22.425Z,2.00
2022-08-12T03:34:29.342Z,2.10
2022-08-12T03:39:35.914Z,2.10
2022-08-12T03:45:07.407Z,2.10
2022-08-12T03:50:29.417Z,2.30
2022-08-12T03:55:50.440Z,1.80
2022-08-12T04:00:52.919Z,2.10
2022-08-12T04:05:56.743Z,2.00
2022-08-12T04:11:17.885Z,2.90
2022-08-12T04:16:20.792Z,2.20
2022-08-12T04:21:23.082Z,2.10
2022-08-12T04:26:27.119Z,2.60
2022-08-12T04:31:34.630Z,2.70
2022-08-12T04:36:39.506Z,2.50
2022-08-12T04:41:52.462Z,1.80
2022-08-12T04:47:01.158Z,3.40
2022-08-12T04:52:04.343Z,2.30
2022-08-12T04:57:09.036Z,2.30
2022-08-12T05:02:16.941Z,1.60
2022-08-12T05:07:23.732Z,2.00
2022-08-12T05:12:34.519Z,2.10
2022-08-12T05:17:36.814Z,1.60
2022-08-12T05:22:44.486Z,1.90
2022-08-12T05:27:58.143Z,2.70
2022-08-12T05:33:05.997Z,1.70
2022-08-12T05:38:37.660Z,2.30
2022-08-12T05:43:39.855Z,2.10
2022-08-12T05:48:42.417Z,1.70
2022-08-12T05:53:45.050Z,2.00
2022-08-12T05:58:48.471Z,1.70
2022-08-12T06:03:52.402Z,2.30
2022-08-12T06:08:55.714Z,4.50
2022-08-12T06:13:58.180Z,5.50
2022-08-12T06:19:01.836Z,3.00
2022-08-12T06:24:04.375Z,2.10
2022-08-12T06:29:07.036Z,2.20
2022-08-12T06:35:24.122Z,2.40
2022-08-12T06:39:33.147Z,5.30
2022-08-12T06:44:37.799Z,6.60
2022-08-12T06:49:42.060Z,4.30
2022-08-12T06:54:50.333Z,2.10
2022-08-12T06:59:53.641Z,2.30
2022-08-12T07:04:55.936Z,3.40
2022-08-12T07:10:06.512Z,6.00
2022-08-12T07:15:22.857Z,4.10
2022-08-12T07:20:51.621Z,3.10
2022-08-12T07:25:58.249Z,2.90
2022-08-12T07:31:09.314Z,5.40
2022-08-12T07:36:14.367Z,3.50
2022-08-12T07:41:31.669Z,3.40
2022-08-12T07:46:43.167Z,3.00
2022-08-12T07:51:45.815Z,3.20
2022-08-12T07:56:48.302Z,2.70
2022-08-12T08:01:52.438Z,3.80
2022-08-12T08:06:58.457Z,4.90
2022-08-12T08:12:21.071Z,2.70
2022-08-12T08:17:26.539Z,4.10
2022-08-12T08:22:41.950Z,4.40
2022-08-12T08:27:56.142Z,9.90
2022-08-12T08:34:09.082Z,17.30
2022-08-12T08:39:30.805Z,5.30
2022-08-12T08:45:20.494Z,7.70
2022-08-12T08:50:33.824Z,12.10
2022-08-12T08:56:04.541Z,9.50
2022-08-12T09:01:24.489Z,6.20
2022-08-12T09:06:37.484Z,7.80
2022-08-12T09:12:23.719Z,6.70
2022-08-12T09:23:07.973Z,6.60
2022-08-12T09:34:28.217Z,9.50
2022-08-12T09:40:06.443Z,15.40
2022-08-12T09:45:03.547Z,9.20
2022-08-12T09:50:20.134Z,14.50
2022-08-12T09:55:59.741Z,17.20
2022-08-12T10:00:51.955Z,15.80
2022-08-12T10:06:26.369Z,12.60
2022-08-12T10:12:11.819Z,18.10
2022-08-12T10:17:14.529Z,11.80
2022-08-12T10:22:47.116Z,17.30
2022-08-12T10:28:05.370Z,8.40
2022-08-12T10:33:18.068Z,10.60
2022-08-12T10:38:33.459Z,7.90
2022-08-12T10:43:54.215Z,5.20
2022-08-12T10:49:06.860Z,8.00
2022-08-12T10:54:27.549Z,7.40
2022-08-12T11:00:31.353Z,7.30
2022-08-12T11:04:58.732Z,8.60
2022-08-12T11:10:02.720Z,5.90
2022-08-12T11:15:18.796Z,7.70
2022-08-12T11:20:30.965Z,4.50
2022-08-12T11:25:58.059Z,9.40
2022-08-12T11:30:56.254Z,6.00
2022-08-12T11:36:16.227Z,8.70
2022-08-12T11:41:31.410Z,8.80
2022-08-12T11:46:36.642Z,5.10
2022-08-12T11:51:39.676Z,5.40
2022-08-12T11:56:44.808Z,5.80
2022-08-12T12:02:05.076Z,5.90
2022-08-12T12:07:11.467Z,6.70
2022-08-12T12:12:14.551Z,5.20
2022-08-12T12:17:17.666Z,8.30
2022-08-12T12:22:23.613Z,4.40
2022-08-12T12:28:05.162Z,4.20
2022-08-12T12:33:06.714Z,4.50
2022-08-12T12:38:11.875Z,5.30
2022-08-12T12:43:16.207Z,3.80
2022-08-12T12:48:20.958Z,4.00
2022-08-12T12:54:08.095Z,4.00
2022-08-12T12:58:50.196Z,5.20
2022-08-12T13:03:56.084Z,3.40
2022-08-12T13:09:03.776Z,4.00
2022-08-12T13:14:12.322Z,6.40
2022-08-12T13:19:15.831Z,5.70
2022-08-12T13:29:36.171Z,4.10
2022-08-12T13:34:38.496Z,4.20
2022-08-12T13:39:40.728Z,4.90
2022-08-12T13:44:43.391Z,4.30
2022-08-12T13:49:54.976Z,4.70
2022-08-12T13:54:58.313Z,3.80
2022-08-12T14:00:01.731Z,5.50
2022-08-12T14:05:37.849Z,4.50
2022-08-12T14:10:51.171Z,4.20
2022-08-12T14:16:03.664Z,3.80
2022-08-12T14:21:10.462Z,3.00
2022-08-12T14:26:24.012Z,3.60
2022-08-12T14:31:31.427Z,3.50
2022-08-12T14:36:34.429Z,3.10
2022-08-12T14:41:48.648Z,3.60
2022-08-12T14:47:00.310Z,3.20
2022-08-12T14:52:55.728Z,2.90
2022-08-12T14:58:00.639Z,4.50
2022-08-12T15:02:49.647Z,3.60
2022-08-12T15:08:01.795Z,3.90
2022-08-12T15:13:08.344Z,5.00
2022-08-12T15:18:13.728Z,3.50
2022-08-12T15:23:17.373Z,2.80
2022-08-12T15:28:22.528Z,3.80
2022-08-12T15:33:45.236Z,3.00
2022-08-12T15:38:49.810Z,3.60
2022-08-12T15:44:36.673Z,4.70
2022-08-12T15:49:18.946Z,3.60
2022-08-12T15:54:35.076Z,3.00
2022-08-12T16:00:02.364Z,3.10
2022-08-12T16:05:01.338Z,3.20
2022-08-12T16:10:08.826Z,2.80
2022-08-12T16:15:14.149Z,5.00
2022-08-12T16:20:22.583Z,3.60
2022-08-12T16:26:03.107Z,2.90
2022-08-12T16:30:59.767Z,2.80
2022-08-12T16:36:05.746Z,4.40
2022-08-12T16:41:13.151Z,5.50
2022-08-12T16:46:31.468Z,3.50
2022-08-12T16:51:40.286Z,4.30
2022-08-12T16:56:55.143Z,3.80
2022-08-12T17:02:00.619Z,2.60
2022-08-12T17:07:10.465Z,4.70
2022-08-12T17:12:17.974Z,3.00
2022-08-12T17:17:26.513Z,4.10
2022-08-12T17:22:42.897Z,3.80
2022-08-12T17:27:57.269Z,4.10
2022-08-12T17:33:02.461Z,3.60
2022-08-12T17:38:09.491Z,2.80
2022-08-12T17:43:51.938Z,3.50
2022-08-12T17:48:40.639Z,3.70
2022-08-12T17:54:11.112Z,4.20
2022-08-12T17:59:19.262Z,4.00
2022-08-12T18:05:04.823Z,2.60
2022-08-12T18:10:08.491Z,3.30
2022-08-12T18:15:27.032Z,3.90
2022-08-12T18:26:14.668Z,4.80
2022-08-12T18:36:27.815Z,3.40
2022-08-12T18:41:37.403Z,3.80
2022-08-12T18:46:45.602Z,3.50
2022-08-12T18:52:02.699Z,2.90
2022-08-12T18:57:19.769Z,3.70
2022-08-12T19:02:32.524Z,3.20
2022-08-12T19:07:57.809Z,3.80
2022-08-12T19:13:33.063Z,3.40
2022-08-12T19:18:41.014Z,3.60
2022-08-12T19:24:11.721Z,3.50
2022-08-12T19:29:18.274Z,2.60
2022-08-12T19:40:20.172Z,4.50
2022-08-12T19:45:41.753Z,3.90
2022-08-12T19:51:00.284Z,3.70
2022-08-12T19:56:17.032Z,3.30
2022-08-12T20:01:28.108Z,3.00
2022-08-12T20:07:24.011Z,2.80
2022-08-12T20:12:32.581Z,3.50
2022-08-12T20:17:55.954Z,3.40
2022-08-12T20:23:01.700Z,5.50
2022-08-12T20:28:17.204Z,3.80
2022-08-12T20:33:50.265Z,3.00
2022-08-12T20:38:53.914Z,4.90
2022-08-12T20:43:58.459Z,4.10
2022-08-12T20:49:14.310Z,3.60
2022-08-12T20:54:32.440Z,3.30
2022-08-12T20:59:41.896Z,4.30
2022-08-12T21:05:19.758Z,4.00
2022-08-12T21:10:27.593Z,4.40
2022-08-12T21:15:54.553Z,4.40
2022-08-12T21:21:02.490Z,2.90
2022-08-12T21:26:11.212Z,4.60
2022-08-12T21:32:36.200Z,4.10
2022-08-12T21:36:53.268Z,3.40
2022-08-12T21:42:27.991Z,3.90
2022-08-12T21:47:37.239Z,3.50
2022-08-12T21:53:14.873Z,3.80
2022-08-12T21:58:28.714Z,3.80
2022-08-12T22:09:28.606Z,3.80
2022-08-12T22:14:35.534Z,5.70
2022-08-12T22:19:51.790Z,4.10
2022-08-12T22:24:58.426Z,4.00
2022-08-12T22:30:28.477Z,3.90
2022-08-12T22:35:56.704Z,4.60
2022-08-12T22:41:01.693Z,3.20
2022-08-12T22:46:30.913Z,4.30
2022-08-12T22:52:00.364Z,4.40
2022-08-12T22:57:12.853Z,3.90
2022-08-12T23:02:28.947Z,4.10
2022-08-12T23:07:58.890Z,4.50
2022-08-12T23:13:22.014Z,3.10
2022-08-12T23:18:29.952Z,3.70
2022-08-12T23:24:09.329Z,4.00
2022-08-12T23:29:29.513Z,4.00
2022-08-12T23:34:37.961Z,3.80
2022-08-12T23:40:06.755Z,3.80
2022-08-12T23:45:18.955Z,3.40
2022-08-12T23:50:23.928Z,4.30
2022-08-12T23:55:40.669Z,5.00
